createdAt,value
2023-01-20T00:01:37.955Z,41.92
2023-01-20T00:04:05.915Z,36.45
2023-01-20T00:06:33.411Z,40.38
2023-01-20T00:09:02.596Z,40.05
2023-01-20T00:11:30.337Z,43.05
2023-01-20T00:14:00.173Z,37.92
2023-01-20T00:16:28.581Z,43.72
2023-01-20T00:18:55.953Z,38.28
2023-01-20T00:21:23.105Z,36.65
2023-01-20T00:23:50.606Z,38.95
2023-01-20T00:26:23.743Z,40.42
2023-01-20T00:28:54.496Z,39.28
2023-01-20T00:31:25.010Z,35.80
2023-01-20T00:33:54.807Z,36.85
2023-01-20T00:36:23.709Z,38.10
2023-01-20T00:38:51.618Z,37.40
2023-01-20T00:41:19.708Z,34.38
2023-01-20T00:43:47.276Z,35.78
2023-01-20T00:46:15.593Z,36.15
2023-01-20T00:48:43.415Z,36.45
2023-01-20T00:51:13.252Z,35.58
2023-01-20T00:53:40.521Z,38.05
2023-01-20T00:56:09.288Z,34.58
2023-01-20T00:58:36.428Z,34.13
2023-01-20T01:01:03.762Z,34.72
2023-01-20T01:03:31.439Z,32.47
2023-01-20T01:06:10.300Z,31.55
2023-01-20T01:08:37.576Z,32.40
2023-01-20T01:11:05.579Z,32.15
2023-01-20T01:13:33.374Z,36.28
2023-01-20T01:16:01.282Z,30.80
2023-01-20T01:18:29.472Z,31.52
2023-01-20T01:20:56.861Z,32.70
2023-01-20T01:23:24.177Z,29.33
2023-01-20T01:25:51.513Z,28.70
2023-01-20T01:28:18.634Z,32.33
2023-01-20T01:30:45.973Z,28.58
2023-01-20T01:33:13.250Z,29.40
2023-01-20T01:35:41.186Z,31.17
2023-01-20T01:38:08.263Z,31.30
2023-01-20T01:40:35.696Z,28.83
2023-01-20T01:43:02.948Z,26.40
2023-01-20T01:45:31.142Z,29.17
2023-01-20T01:48:18.962Z,31.45
2023-01-20T01:51:14.545Z,31.10
2023-01-20T01:53:46.716Z,31.75
2023-01-20T01:56:16.472Z,29.58
2023-01-20T01:58:48.930Z,27.73
2023-01-20T02:01:16.429Z,26.08
2023-01-20T02:03:53.512Z,26.98
2023-01-20T02:06:24.773Z,29.60
2023-01-20T02:08:53.230Z,34.13
2023-01-20T02:11:20.327Z,35.75
2023-01-20T02:13:47.874Z,29.73
2023-01-20T02:16:27.777Z,26.20
2023-01-20T02:19:29.806Z,27.58
2023-01-20T02:22:18.286Z,24.90
2023-01-20T02:25:00.482Z,24.92
2023-01-20T02:28:01.643Z,26.67
2023-01-20T02:30:38.932Z,25.77
2023-01-20T02:33:27.029Z,27.08
2023-01-20T02:36:06.795Z,32.58
2023-01-20T02:38:56.749Z,25.42
2023-01-20T02:41:32.314Z,26.42
2023-01-20T02:44:12.630Z,22.92
2023-01-20T02:46:49.039Z,25.23
2023-01-20T02:49:59.350Z,26.27
2023-01-20T02:52:30.514Z,24.02
2023-01-20T02:55:02.628Z,27.17
2023-01-20T02:57:42.282Z,25.70
2023-01-20T03:00:23.170Z,26.90
2023-01-20T03:02:53.916Z,23.83
2023-01-20T03:05:26.286Z,23.10
2023-01-20T03:07:56.161Z,22.00
2023-01-20T03:10:26.786Z,25.35
2023-01-20T03:13:14.471Z,20.27
2023-01-20T03:16:06.811Z,28.63
2023-01-20T03:18:35.520Z,25.83
2023-01-20T03:21:05.453Z,25.85
2023-01-20T03:23:36.085Z,19.75
2023-01-20T03:26:10.798Z,24.35
2023-01-20T03:28:39.261Z,24.83
2023-01-20T03:31:16.997Z,23.83
2023-01-20T03:33:47.661Z,22.15
2023-01-20T03:36:17.164Z,22.27
2023-01-20T03:38:45.522Z,20.08
2023-01-20T03:41:41.554Z,23.20
2023-01-20T03:44:33.045Z,19.63
2023-01-20T03:47:00.597Z,23.63
2023-01-20T03:49:39.435Z,28.73
2023-01-20T03:52:18.063Z,28.40
2023-01-20T03:54:52.747Z,24.90
2023-01-20T03:57:26.572Z,25.27
2023-01-20T03:59:54.624Z,22.85
2023-01-20T04:02:24.276Z,24.55
2023-01-20T04:04:53.019Z,26.75
2023-01-20T04:07:25.467Z,24.65
2023-01-20T04:10:03.101Z,24.88
2023-01-20T04:12:30.932Z,26.65
2023-01-20T04:14:59.895Z,27.08
2023-01-20T04:17:29.117Z,26.67
2023-01-20T04:20:05.187Z,26.73
2023-01-20T04:22:39.742Z,29.77
2023-01-20T04:25:16.894Z,32.38
2023-01-20T04:27:47.460Z,28.75
2023-01-20T04:30:15.040Z,28.50
2023-01-20T04:32:42.347Z,29.90
2023-01-20T04:35:14.680Z,32.45
2023-01-20T04:37:45.575Z,32.25
2023-01-20T04:40:13.560Z,33.25
2023-01-20T04:42:40.811Z,32.80
2023-01-20T04:45:08.432Z,31.15
2023-01-20T04:47:36.205Z,35.80
2023-01-20T04:50:04.689Z,27.52
2023-01-20T04:52:32.386Z,29.98
2023-01-20T04:54:59.779Z,27.13
2023-01-20T04:57:27.236Z,30.35
2023-01-20T04:59:54.778Z,32.45
2023-01-20T05:02:22.057Z,33.10
2023-01-20T05:04:49.387Z,30.20
2023-01-20T05:07:16.652Z,30.63
2023-01-20T05:09:43.994Z,29.85
2023-01-20T05:12:12.832Z,35.53
2023-01-20T05:14:40.240Z,33.10
2023-01-20T05:17:07.465Z,31.67
2023-01-20T05:19:34.710Z,30.52
2023-01-20T05:22:01.852Z,35.85
2023-01-20T05:24:30.959Z,33.65
2023-01-20T05:27:01.913Z,35.65
2023-01-20T05:29:29.860Z,31.50
2023-01-20T05:31:58.284Z,30.42
2023-01-20T05:34:25.577Z,29.25
2023-01-20T05:36:54.310Z,31.95
2023-01-20T05:39:22.194Z,34.42
2023-01-20T05:41:49.552Z,27.55
2023-01-20T05:44:17.229Z,32.33
2023-01-20T05:46:44.705Z,31.02
2023-01-20T05:49:15.480Z,32.40
2023-01-20T05:51:42.556Z,31.27
2023-01-20T05:54:10.044Z,35.63
2023-01-20T05:56:39.921Z,33.28
2023-01-20T05:59:07.961Z,34.65
2023-01-20T06:01:35.103Z,33.83
2023-01-20T06:04:02.378Z,28.90
2023-01-20T06:06:32.867Z,34.92
2023-01-20T06:08:59.965Z,31.20
2023-01-20T06:11:27.842Z,34.03
2023-01-20T06:13:54.938Z,31.00
2023-01-20T06:16:22.146Z,32.47
2023-01-20T06:18:49.269Z,30.92
2023-01-20T06:21:16.649Z,30.23
2023-01-20T06:23:43.962Z,30.30
2023-01-20T06:26:13.027Z,34.42
2023-01-20T06:28:40.715Z,35.97
2023-01-20T06:31:11.258Z,30.88
2023-01-20T06:33:38.552Z,32.03
2023-01-20T06:36:06.558Z,29.02
2023-01-20T06:38:35.466Z,26.40
2023-01-20T06:41:10.699Z,31.73
2023-01-20T06:43:42.340Z,28.65
2023-01-20T06:46:15.071Z,28.65
2023-01-20T06:48:43.747Z,32.35
2023-01-20T06:51:14.240Z,31.60
2023-01-20T06:53:41.612Z,28.40
2023-01-20T06:56:12.355Z,27.50
2023-01-20T06:58:40.555Z,29.98
2023-01-20T07:01:16.603Z,24.00
2023-01-20T07:03:43.983Z,31.58
2023-01-20T07:06:25.867Z,31.30
2023-01-20T07:08:52.975Z,26.23
2023-01-20T07:11:20.350Z,27.33
2023-01-20T07:13:47.671Z,24.08
2023-01-20T07:16:16.179Z,25.70
2023-01-20T07:18:47.300Z,26.48
2023-01-20T07:21:14.778Z,27.58
2023-01-20T07:23:42.004Z,25.65
2023-01-20T07:26:11.936Z,26.45
2023-01-20T07:28:39.941Z,27.83
2023-01-20T07:31:08.481Z,26.90
2023-01-20T07:33:36.741Z,25.85
2023-01-20T07:36:05.278Z,24.05
2023-01-20T07:38:33.223Z,23.27
2023-01-20T07:41:03.495Z,25.63
2023-01-20T07:43:32.797Z,21.10
2023-01-20T07:46:02.729Z,28.13
2023-01-20T07:48:31.667Z,25.98
2023-01-20T07:51:05.622Z,24.33
2023-01-20T07:53:41.056Z,25.47
2023-01-20T07:56:12.089Z,26.45
2023-01-20T07:58:40.211Z,25.00
2023-01-20T08:01:13.863Z,24.65
2023-01-20T08:03:41.514Z,27.05
2023-01-20T08:06:11.176Z,26.30
2023-01-20T08:08:39.072Z,26.00
2023-01-20T08:11:07.770Z,22.17
2023-01-20T08:13:35.194Z,25.42
2023-01-20T08:16:08.724Z,28.70
2023-01-20T08:18:36.717Z,24.00
2023-01-20T08:21:06.854Z,25.23
2023-01-20T08:23:37.915Z,23.30
2023-01-20T08:26:07.716Z,25.25
2023-01-20T08:28:37.533Z,26.45
2023-01-20T08:31:11.985Z,24.55
2023-01-20T08:33:40.438Z,26.58
2023-01-20T08:36:17.566Z,26.75
2023-01-20T08:38:45.626Z,26.58
2023-01-20T08:41:16.002Z,23.77
2023-01-20T08:43:43.435Z,27.50
2023-01-20T08:46:13.052Z,25.70
2023-01-20T08:48:42.314Z,27.30
2023-01-20T08:51:30.849Z,24.83
2023-01-20T08:53:59.151Z,24.80
2023-01-20T08:56:26.855Z,24.20
2023-01-20T08:58:54.895Z,22.40
2023-01-20T09:01:25.291Z,24.00
2023-01-20T09:04:04.755Z,21.70
2023-01-20T09:06:48.683Z,22.05
2023-01-20T09:09:17.887Z,20.95
2023-01-20T09:11:51.256Z,21.40
2023-01-20T09:14:20.403Z,23.70
2023-01-20T09:16:47.891Z,22.17
2023-01-20T09:19:15.724Z,21.75
2023-01-20T09:21:44.467Z,21.67
2023-01-20T09:24:11.744Z,21.05
2023-01-20T09:26:39.561Z,22.67
2023-01-20T09:29:10.859Z,21.75
2023-01-20T09:31:40.580Z,19.75
2023-01-20T09:34:07.852Z,22.50
2023-01-20T09:36:35.105Z,21.50
2023-01-20T09:39:20.708Z,22.40
2023-01-20T09:42:07.767Z,22.95
2023-01-20T09:44:38.055Z,19.02
2023-01-20T09:47:32.676Z,25.65
2023-01-20T09:50:24.415Z,19.17
2023-01-20T09:53:08.446Z,21.17
2023-01-20T09:55:41.233Z,18.75
2023-01-20T09:58:14.541Z,21.58
2023-01-20T10:00:48.127Z,18.48
2023-01-20T10:03:25.470Z,21.83
2023-01-20T10:05:57.620Z,17.88
2023-01-20T10:08:41.406Z,22.45
2023-01-20T10:11:20.522Z,20.60
2023-01-20T10:13:56.583Z,19.83
2023-01-20T10:16:30.075Z,17.38
2023-01-20T10:19:13.774Z,19.23
2023-01-20T10:21:53.236Z,22.80
2023-01-20T10:24:31.999Z,22.02
2023-01-20T10:27:04.234Z,18.17
2023-01-20T10:29:38.906Z,20.08
2023-01-20T10:32:34.056Z,20.85
2023-01-20T10:35:09.447Z,18.42
2023-01-20T10:37:36.775Z,19.13
2023-01-20T10:40:20.115Z,18.83
2023-01-20T10:42:57.662Z,19.20
2023-01-20T10:45:46.013Z,17.00
2023-01-20T10:48:50.590Z,21.83
2023-01-20T10:51:33.979Z,21.27
2023-01-20T10:54:24.541Z,16.83
2023-01-20T10:56:57.046Z,17.33
2023-01-20T10:59:52.309Z,21.73
2023-01-20T11:02:28.326Z,15.60
2023-01-20T11:05:00.279Z,19.33
2023-01-20T11:07:29.379Z,19.90
2023-01-20T11:09:56.508Z,21.70
2023-01-20T11:12:27.542Z,16.63
2023-01-20T11:15:00.043Z,20.33
2023-01-20T11:17:27.423Z,18.90
2023-01-20T11:20:05.577Z,18.40
2023-01-20T11:22:36.634Z,20.63
2023-01-20T11:25:05.257Z,18.35
2023-01-20T11:27:41.811Z,16.90
2023-01-20T11:30:21.473Z,23.20
2023-01-20T11:33:20.857Z,20.80
2023-01-20T11:36:16.932Z,20.52
2023-01-20T11:38:47.310Z,23.45
2023-01-20T11:41:34.863Z,23.98
2023-01-20T11:44:02.177Z,22.02
2023-01-20T11:46:34.918Z,32.58
2023-01-20T11:49:22.931Z,27.40
2023-01-20T11:51:53.297Z,28.05
2023-01-20T11:54:26.612Z,23.70
2023-01-20T11:57:05.084Z,24.73
2023-01-20T11:59:35.299Z,25.48
2023-01-20T12:02:23.769Z,31.63
2023-01-20T12:05:07.585Z,30.35
2023-01-20T12:07:54.404Z,27.10
2023-01-20T12:10:29.832Z,28.10
2023-01-20T12:13:06.219Z,27.55
2023-01-20T12:15:38.010Z,26.08
2023-01-20T12:18:18.444Z,29.15
2023-01-20T12:20:56.232Z,23.67
2023-01-20T12:23:23.316Z,25.63
2023-01-20T12:26:00.987Z,23.40
2023-01-20T12:29:19.027Z,27.52
2023-01-20T12:31:49.521Z,25.13
2023-01-20T12:34:24.630Z,26.63
2023-01-20T12:37:42.615Z,28.15
2023-01-20T12:40:31.063Z,25.67
2023-01-20T12:43:23.218Z,26.70
2023-01-20T12:46:22.785Z,22.52
2023-01-20T12:49:13.603Z,25.30
2023-01-20T12:51:48.142Z,25.10
2023-01-20T12:54:47.756Z,23.67
2023-01-20T12:57:25.767Z,23.95
2023-01-20T13:00:18.756Z,21.50
2023-01-20T13:03:36.605Z,17.23
2023-01-20T13:06:36.082Z,24.08
2023-01-20T13:09:18.577Z,21.05
2023-01-20T13:12:07.087Z,21.08
2023-01-20T13:14:46.838Z,16.80
2023-01-20T13:17:20.005Z,25.73
2023-01-20T13:19:49.681Z,22.83
2023-01-20T13:22:22.846Z,25.10
2023-01-20T13:24:55.101Z,23.50
2023-01-20T13:27:43.786Z,19.00
2023-01-20T13:30:53.133Z,27.48
2023-01-20T13:33:39.117Z,26.85
2023-01-20T13:36:34.133Z,22.67
2023-01-20T13:39:46.269Z,22.25
2023-01-20T13:42:49.130Z,22.20
2023-01-20T13:45:20.451Z,23.00
2023-01-20T13:48:22.615Z,22.77
2023-01-20T13:50:50.684Z,23.05
2023-01-20T13:53:20.818Z,24.38
2023-01-20T13:55:48.546Z,23.85
2023-01-20T13:58:27.803Z,25.67
2023-01-20T14:00:57.931Z,22.35
2023-01-20T14:03:28.277Z,24.00
2023-01-20T14:06:01.758Z,24.80
2023-01-20T14:08:37.056Z,23.35
2023-01-20T14:11:10.915Z,23.98
2023-01-20T14:13:38.728Z,20.70
2023-01-20T14:16:06.462Z,23.63
2023-01-20T14:18:34.009Z,18.35
2023-01-20T14:21:23.763Z,18.50
2023-01-20T14:23:53.455Z,20.95
2023-01-20T14:26:27.744Z,19.90
2023-01-20T14:29:01.756Z,19.35
2023-01-20T14:31:45.499Z,18.83
2023-01-20T14:34:22.787Z,18.63
2023-01-20T14:36:51.869Z,17.05
2023-01-20T14:39:26.052Z,16.55
2023-01-20T14:41:58.153Z,20.03
2023-01-20T14:44:35.262Z,20.58
2023-01-20T14:47:04.145Z,17.45
2023-01-20T14:49:34.406Z,16.27
2023-01-20T14:52:02.369Z,18.70
2023-01-20T14:54:41.779Z,17.25
2023-01-20T14:57:32.098Z,16.02
2023-01-20T15:00:05.590Z,17.17
2023-01-20T15:02:36.445Z,18.17
2023-01-20T15:05:20.637Z,18.98
2023-01-20T15:07:47.805Z,16.13
2023-01-20T15:10:17.706Z,20.67
2023-01-20T15:12:45.098Z,20.20
2023-01-20T15:15:32.777Z,23.10
2023-01-20T15:18:11.845Z,21.08
2023-01-20T15:20:42.035Z,22.27
2023-01-20T15:23:17.544Z,27.10
2023-01-20T15:25:48.222Z,25.83
2023-01-20T15:28:25.388Z,21.27
2023-01-20T15:30:54.408Z,19.13
2023-01-20T15:33:23.846Z,24.00
2023-01-20T15:35:53.926Z,20.67
2023-01-20T15:38:21.617Z,22.83
2023-01-20T15:40:49.390Z,20.10
2023-01-20T15:43:18.588Z,21.52
2023-01-20T15:45:46.382Z,22.30
2023-01-20T15:48:22.490Z,18.63
2023-01-20T15:50:49.872Z,18.52
2023-01-20T15:53:17.593Z,18.83
2023-01-20T15:55:52.029Z,16.75
2023-01-20T15:58:32.965Z,17.40
2023-01-20T16:01:00.642Z,16.48
2023-01-20T16:03:28.640Z,14.82
2023-01-20T16:05:56.779Z,14.75
2023-01-20T16:08:32.986Z,15.23
2023-01-20T16:11:00.307Z,11.50
2023-01-20T16:13:27.523Z,12.43
2023-01-20T16:15:55.555Z,14.80
2023-01-20T16:18:22.932Z,11.70
2023-01-20T16:20:50.344Z,12.88
2023-01-20T16:23:17.993Z,13.38
2023-01-20T16:25:48.834Z,10.68
2023-01-20T16:28:21.602Z,12.00
2023-01-20T16:30:49.309Z,10.48
2023-01-20T16:33:34.655Z,10.65
2023-01-20T16:36:06.955Z,10.95
2023-01-20T16:38:34.787Z,12.63
2023-01-20T16:41:11.982Z,12.60
2023-01-20T16:43:43.417Z,12.07
2023-01-20T16:46:23.297Z,11.77
2023-01-20T16:48:51.619Z,13.95
2023-01-20T16:51:23.423Z,13.57
2023-01-20T16:54:01.393Z,11.63
2023-01-20T16:56:31.694Z,16.23
2023-01-20T16:59:01.772Z,13.70
2023-01-20T17:01:31.025Z,12.00
2023-01-20T17:04:01.111Z,8.30
2023-01-20T17:06:31.208Z,9.95
2023-01-20T17:09:00.416Z,12.68
2023-01-20T17:11:32.955Z,11.55
2023-01-20T17:14:02.693Z,10.88
2023-01-20T17:16:30.476Z,11.18
2023-01-20T17:18:59.917Z,10.65
2023-01-20T17:21:29.433Z,9.95
2023-01-20T17:24:00.434Z,9.57
2023-01-20T17:26:28.649Z,9.02
2023-01-20T17:28:58.181Z,10.00
2023-01-20T17:31:26.341Z,11.88
2023-01-20T17:33:53.806Z,12.27
2023-01-20T17:36:21.297Z,14.05
2023-01-20T17:38:48.889Z,10.13
2023-01-20T17:41:16.207Z,11.38
2023-01-20T17:43:46.454Z,9.68
2023-01-20T17:46:30.421Z,10.55
2023-01-20T17:49:00.284Z,9.10
2023-01-20T17:51:29.370Z,11.38
2023-01-20T17:54:03.389Z,11.43
2023-01-20T17:56:31.722Z,9.48
2023-01-20T17:58:59.017Z,9.30
2023-01-20T18:01:33.816Z,10.23
2023-01-20T18:04:04.417Z,8.73
2023-01-20T18:06:35.124Z,8.00
2023-01-20T18:09:02.576Z,9.55
2023-01-20T18:11:32.788Z,7.95
2023-01-20T18:14:00.882Z,9.85
2023-01-20T18:16:34.202Z,10.18
2023-01-20T18:19:02.629Z,6.65
2023-01-20T18:21:38.208Z,7.57
2023-01-20T18:24:07.847Z,9.55
2023-01-20T18:26:37.420Z,8.13
2023-01-20T18:29:07.781Z,10.25
2023-01-20T18:31:35.709Z,7.38
2023-01-20T18:34:05.750Z,8.88
2023-01-20T18:36:35.383Z,7.32
2023-01-20T18:39:23.703Z,6.65
2023-01-20T18:41:51.714Z,8.60
2023-01-20T18:44:19.446Z,10.15
2023-01-20T18:46:47.133Z,9.82
2023-01-20T18:49:16.118Z,9.32
2023-01-20T18:51:43.950Z,13.30
2023-01-20T18:54:14.782Z,7.97
2023-01-20T18:56:43.031Z,9.85
2023-01-20T18:59:13.301Z,8.13
2023-01-20T19:01:41.278Z,8.90
2023-01-20T19:04:12.943Z,11.52
2023-01-20T19:06:45.603Z,10.35
2023-01-20T19:09:16.111Z,7.78
2023-01-20T19:11:43.665Z,7.28
2023-01-20T19:14:13.955Z,8.90
2023-01-20T19:16:45.600Z,6.40
2023-01-20T19:19:13.742Z,7.32
2023-01-20T19:21:40.860Z,6.45
2023-01-20T19:24:11.009Z,12.75
2023-01-20T19:26:39.827Z,10.30
2023-01-20T19:29:10.662Z,13.52
2023-01-20T19:31:40.431Z,5.97
2023-01-20T19:34:09.368Z,10.00
2023-01-20T19:36:36.983Z,7.85
2023-01-20T19:39:05.089Z,10.57
2023-01-20T19:41:34.608Z,10.75
2023-01-20T19:44:04.252Z,12.85
2023-01-20T19:46:34.621Z,7.07
2023-01-20T19:49:02.718Z,7.40
2023-01-20T19:51:31.886Z,7.32
2023-01-20T19:54:01.313Z,5.40
2023-01-20T19:56:31.642Z,7.28
2023-01-20T19:59:00.852Z,5.90
2023-01-20T20:01:31.870Z,8.88
2023-01-20T20:04:00.239Z,8.48
2023-01-20T20:06:29.741Z,7.35
2023-01-20T20:09:02.583Z,12.73
2023-01-20T20:11:31.377Z,9.73
2023-01-20T20:14:00.681Z,10.15
2023-01-20T20:16:31.307Z,9.85
2023-01-20T20:18:59.103Z,6.80
2023-01-20T20:21:27.621Z,7.97
2023-01-20T20:23:57.639Z,7.85
2023-01-20T20:26:29.191Z,8.05
2023-01-20T20:28:57.810Z,10.85
2023-01-20T20:31:29.691Z,4.10
2023-01-20T20:34:02.140Z,7.30
2023-01-20T20:36:31.297Z,9.48
2023-01-20T20:38:59.315Z,8.23
2023-01-20T20:41:29.220Z,7.03
2023-01-20T20:43:57.559Z,5.28
2023-01-20T20:46:26.134Z,8.90
2023-01-20T20:48:55.340Z,12.52
2023-01-20T20:51:26.414Z,5.22
2023-01-20T20:53:58.129Z,9.48
2023-01-20T20:56:28.557Z,9.57
2023-01-20T20:59:02.032Z,7.50
2023-01-20T21:01:33.149Z,8.48
2023-01-20T21:04:01.400Z,4.07
2023-01-20T21:06:29.979Z,7.97
2023-01-20T21:08:58.822Z,6.60
2023-01-20T21:11:26.252Z,8.55
2023-01-20T21:13:53.849Z,7.10
2023-01-20T21:16:23.540Z,6.47
2023-01-20T21:18:56.505Z,8.23
2023-01-20T21:21:24.674Z,5.65
2023-01-20T21:23:54.344Z,8.20
2023-01-20T21:26:22.640Z,9.48
2023-01-20T21:28:52.343Z,7.95
2023-01-20T21:31:25.275Z,8.05
2023-01-20T21:33:58.607Z,10.10
2023-01-20T21:36:27.222Z,10.77
2023-01-20T21:38:54.551Z,12.38
2023-01-20T21:41:22.146Z,10.68
2023-01-20T21:44:08.411Z,8.60
2023-01-20T21:46:39.493Z,9.57
2023-01-20T21:49:27.290Z,9.93
2023-01-20T21:52:15.151Z,8.48
2023-01-20T21:54:45.780Z,8.55
2023-01-20T21:57:15.020Z,8.80
2023-01-20T21:59:42.684Z,9.80
2023-01-20T22:02:12.468Z,11.15
2023-01-20T22:04:42.421Z,12.55
2023-01-20T22:07:10.575Z,10.60
2023-01-20T22:09:38.052Z,13.25
2023-01-20T22:12:07.319Z,10.30
2023-01-20T22:14:34.600Z,12.00
2023-01-20T22:17:01.982Z,11.43
2023-01-20T22:19:29.229Z,12.18
2023-01-20T22:21:57.040Z,15.32
2023-01-20T22:24:24.223Z,15.15
2023-01-20T22:26:51.940Z,11.02
2023-01-20T22:29:19.159Z,12.43
2023-01-20T22:31:47.210Z,12.70
2023-01-20T22:34:14.567Z,12.50
2023-01-20T22:36:41.966Z,14.88
2023-01-20T22:39:12.051Z,14.90
2023-01-20T22:41:39.304Z,13.45
2023-01-20T22:44:06.742Z,13.90
2023-01-20T22:46:33.995Z,15.23
2023-01-20T22:49:01.204Z,11.80
2023-01-20T22:51:31.221Z,16.38
2023-01-20T22:54:01.068Z,16.83
2023-01-20T22:56:30.989Z,14.40
2023-01-20T22:58:59.690Z,14.65
2023-01-20T23:01:30.756Z,9.55
2023-01-20T23:04:03.776Z,14.05
2023-01-20T23:06:33.938Z,12.32
2023-01-20T23:09:03.454Z,14.35
2023-01-20T23:11:31.251Z,14.00
2023-01-20T23:13:59.383Z,12.43
2023-01-20T23:16:26.713Z,14.05
2023-01-20T23:18:54.092Z,14.70
2023-01-20T23:21:22.364Z,12.02
2023-01-20T23:23:56.998Z,14.35
2023-01-20T23:26:27.523Z,9.65
2023-01-20T23:28:55.666Z,15.15
2023-01-20T23:31:25.324Z,13.45
2023-01-20T23:33:54.555Z,10.55
2023-01-20T23:36:26.536Z,12.50
2023-01-20T23:38:55.509Z,11.90
2023-01-20T23:41:23.510Z,14.57
2023-01-20T23:43:50.924Z,10.25
2023-01-20T23:46:18.129Z,11.43
2023-01-20T23:48:46.855Z,15.48
2023-01-20T23:51:15.119Z,13.75
2023-01-20T23:53:42.791Z,11.93
2023-01-20T23:56:16.595Z,12.57
2023-01-20T23:58:44.490Z,12.40
